Alexanders Store, Texas
Current Conditions -  °F | °C
As of 8:35 AM on Sunday 23 Nov 2014 (Local Time) from KOCH Reporting Station
Overcast Overcast  
Wind Chill: 16°   Ceiling: 1400
Heat Index: 16°   Visibility: 10mi
Dew Point: 15°   Wind: 6mph
Humidity: 94%   Direction: 260°W
Pressure: 29.63"   Gusts: NA
Location:  31.7022°N, 93.9592°W
Report Text: KOCH 231435Z AUTO 26005KT 10SM SCT009 OVC014 16/15 A2963 RMK AO1
Loading
Personal Weather Stations






























Interactive Weather Map New forecast layout! Learn more

10-Day Weather Forecast

Advertisements
Track Severe Weather on mobile